Time;durP1;ratioP1;P1;durP2;ratioP2;P2;SDS_P1;SDS_P2;PMS_P1;PMS_P2;Temp;Humidity;BMP_temperature;BMP_pressure;BME280_temperature;BME280_humidity;BME280_pressure;Samples;Min_cycle;Max_cycle;Signal;HPM_P1;HPM_P2
2022/10/02 00:02:51;;;;;;;26.45;17.42;;;;;;;18.76;100.00;100037.89;1770559;80;21049;-72
2022/10/02 00:05:29;;;;;;;24.37;16.90;;;;;;;18.74;100.00;100045.02;1769909;80;21011;-72
2022/10/02 00:08:16;;;;;;;28.05;18.70;;;;;;;18.72;100.00;100043.84;1773644;80;21505;-72
2022/10/02 00:10:56;;;;;;;28.80;19.32;;;;;;;18.74;100.00;100039.81;1771441;80;21079;-72
2022/10/02 00:13:45;;;;;;;27.35;20.10;;;;;;;18.72;100.00;100028.69;1739421;80;21022;-72
2022/10/02 00:16:39;;;;;;;28.83;20.60;;;;;;;18.71;100.00;100034.36;1768832;80;21029;-73
2022/10/02 00:19:08;;;;;;;;;;;;;;;18.71;100.00;100034.36;1772008;80;21014;-72
2022/10/02 00:22:08;;;;;;;35.63;23.15;;;;;;;18.71;100.00;100033.05;1766879;80;20112;-73
2022/10/02 00:25:04;;;;;;;34.13;22.13;;;;;;;18.73;100.00;100040.75;1770218;80;20979;-72
2022/10/02 00:28:07;;;;;;;35.75;23.77;;;;;;;18.74;100.00;100037.20;1768743;80;21550;-72
2022/10/02 00:31:16;;;;;;;37.33;25.37;;;;;;;18.73;100.00;100029.83;1767494;80;20959;-71
2022/10/02 00:34:10;;;;;;;39.35;26.00;;;;;;;18.74;100.00;100034.59;1768272;80;21499;-70
2022/10/02 00:36:57;;;;;;;39.13;26.07;;;;;;;18.75;100.00;100037.05;1770338;80;21428;-71
2022/10/02 00:39:52;;;;;;;36.58;26.55;;;;;;;18.76;100.00;100032.68;1770910;80;21096;-71
2022/10/02 00:42:30;;;;;;;35.10;24.47;;;;;;;18.76;100.00;100035.28;1772061;80;21108;-71
2022/10/02 00:45:22;;;;;;;42.23;28.17;;;;;;;18.81;100.00;100041.77;1772431;80;21003;-71
2022/10/02 00:48:13;;;;;;;43.60;27.58;;;;;;;18.84;100.00;100038.09;1740776;80;21030;-71
2022/10/02 00:50:55;;;;;;;40.03;27.55;;;;;;;18.86;100.00;100032.26;1770223;80;20998;-71
2022/10/02 00:53:29;;;;;;;39.10;26.85;;;;;;;18.89;100.00;100043.72;1763792;80;21011;-71
2022/10/02 00:56:29;;;;;;;42.40;28.42;;;;;;;18.89;100.00;100050.23;1765792;80;21018;-71
2022/10/02 00:59:26;;;;;;;40.50;27.80;;;;;;;18.90;100.00;100050.59;1771880;80;21022;-71
2022/10/02 01:01:58;;;;;;;41.77;27.40;;;;;;;18.92;100.00;100041.34;1771214;80;21494;-71
2022/10/02 01:04:35;;;;;;;41.95;28.67;;;;;;;18.91;100.00;100039.67;1767259;80;21010;-72
2022/10/02 01:07:07;;;;;;;46.28;29.12;;;;;;;18.90;100.00;100038.86;1772697;80;21573;-71
2022/10/02 01:09:37;;;;;;;47.27;28.97;;;;;;;18.89;100.00;100037.69;1768254;80;20986;-71
2022/10/02 01:12:04;;;;;;;42.93;30.15;;;;;;;18.88;100.00;100041.27;1763872;80;21038;-71
2022/10/02 01:14:36;;;;;;;40.63;28.23;;;;;;;18.86;100.00;100044.48;1770906;80;21471;-71
2022/10/02 01:17:07;;;;;;;47.15;30.10;;;;;;;18.83;100.00;100040.34;1767075;80;20963;-71
2022/10/02 01:19:38;;;;;;;50.85;32.17;;;;;;;18.84;100.00;100037.27;1768583;80;21006;-71
2022/10/02 01:22:14;;;;;;;52.58;31.87;;;;;;;18.83;100.00;100032.51;1769814;80;21003;-71
2022/10/02 01:24:50;;;;;;;46.63;30.32;;;;;;;18.84;100.00;100026.84;1766962;80;21015;-71
2022/10/02 01:27:18;;;;;;;50.28;32.75;;;;;;;18.87;100.00;100025.25;1767579;80;21065;-72
2022/10/02 01:29:50;;;;;;;54.90;33.15;;;;;;;18.87;100.00;100014.83;1766846;80;21097;-72
2022/10/02 01:32:17;;;;;;;50.83;33.15;;;;;;;18.89;100.00;100006.39;1771367;80;21062;-72
2022/10/02 01:34:47;;;;;;;47.40;32.23;;;;;;;18.92;100.00;100003.53;1767279;80;21069;-72
2022/10/02 01:37:14;;;;;;;49.50;33.10;;;;;;;18.96;100.00;99997.90;1762497;80;21093;-72
2022/10/02 01:39:41;;;;;;;42.30;28.27;;;;;;;19.03;100.00;99998.66;1765992;80;21117;-71
2022/10/02 01:42:10;;;;;;;47.70;31.87;;;;;;;19.07;100.00;99996.95;1771338;80;20943;-72
2022/10/02 01:44:37;;;;;;;50.10;31.97;;;;;;;19.12;100.00;99993.47;1758927;80;20987;-72
2022/10/02 01:47:18;;;;;;;48.80;31.25;;;;;;;19.17;100.00;99990.45;1771473;79;21497;-71
2022/10/02 01:50:15;;;;;;;52.35;32.17;;;;;;;19.19;100.00;99984.61;1770689;80;21018;-71
2022/10/02 01:53:09;;;;;;;46.35;30.97;;;;;;;19.23;100.00;99985.98;1754968;80;21053;-71
2022/10/02 01:55:53;;;;;;;48.20;30.90;;;;;;;19.25;100.00;99987.98;1760732;80;21447;-71
2022/10/02 01:58:43;;;;;;;44.03;30.20;;;;;;;19.27;100.00;99982.63;1769668;80;21010;-71
2022/10/02 02:01:26;;;;;;;41.13;28.07;;;;;;;19.29;100.00;99977.61;1770366;80;21034;-71
2022/10/02 02:04:15;;;;;;;41.13;27.73;;;;;;;19.31;100.00;99970.47;1765304;80;21018;-70
2022/10/02 02:06:47;;;;;;;40.75;27.40;;;;;;;19.36;100.00;99960.91;1768551;80;21026;-70
2022/10/02 02:09:19;;;;;;;38.25;24.92;;;;;;;19.40;100.00;99964.89;1767665;80;21518;-72
2022/10/02 02:11:52;;;;;;;38.02;25.92;;;;;;;19.44;100.00;99957.13;1766831;80;21565;-71
2022/10/02 02:14:27;;;;;;;35.90;23.87;;;;;;;19.49;100.00;99958.05;1769481;80;21526;-71
2022/10/02 02:17:12;;;;;;;35.05;23.62;;;;;;;19.53;100.00;99951.58;1765080;80;21026;-71
2022/10/02 02:19:47;;;;;;;33.20;22.50;;;;;;;19.55;100.00;99938.72;1768330;80;21002;-71
2022/10/02 02:22:25;;;;;;;31.30;20.43;;;;;;;19.58;100.00;99936.31;1770555;80;21037;-71
2022/10/02 02:24:57;;;;;;;32.13;20.72;;;;;;;19.60;100.00;99933.89;1768073;80;20991;-71
2022/10/02 02:27:29;;;;;;;28.60;19.50;;;;;;;19.63;100.00;99930.20;1769861;80;20994;-71
2022/10/02 02:30:00;;;;;;;26.73;19.73;;;;;;;19.65;100.00;99927.42;1768200;80;21027;-71
2022/10/02 02:32:33;;;;;;;29.20;19.30;;;;;;;19.66;100.00;99910.31;1768732;80;21631;-71
2022/10/02 02:35:16;;;;;;;30.65;19.82;;;;;;;19.69;100.00;99907.44;1770848;80;21494;-72
2022/10/02 02:37:45;;;;;;;32.50;19.12;;;;;;;19.70;100.00;99902.55;1769236;80;21014;-71
2022/10/02 02:40:21;;;;;;;33.02;20.30;;;;;;;19.74;100.00;99883.05;1765264;80;21081;-71
2022/10/02 02:43:05;;;;;;;25.70;19.77;;;;;;;19.75;100.00;99870.34;1766510;80;20979;-72
2022/10/02 02:45:50;;;;;;;24.77;19.12;;;;;;;19.75;100.00;99870.34;1771666;80;20990;-71
2022/10/02 02:48:24;;;;;;;26.70;19.90;;;;;;;19.80;100.00;99858.16;1766868;80;21026;-72
2022/10/02 02:50:59;;;;;;;31.97;21.57;;;;;;;19.82;100.00;99854.92;1766317;80;21045;-71
2022/10/02 02:53:47;;;;;;;32.20;20.82;;;;;;;19.80;100.00;99850.32;1768066;80;21030;-71
2022/10/02 02:56:17;;;;;;;27.67;21.52;;;;;;;19.83;100.00;99857.89;1773113;80;22398;-72
2022/10/02 02:59:01;;;;;;;30.52;21.12;;;;;;;19.84;100.00;99863.92;1767384;80;21046;-71
2022/10/02 03:01:28;;;;;;;30.57;19.90;;;;;;;19.78;100.00;99871.34;1768385;80;21002;-70
2022/10/02 03:03:55;;;;;;;31.70;21.65;;;;;;;19.77;100.00;99870.21;1770744;80;21014;-71
2022/10/02 03:06:36;;;;;;;31.95;22.05;;;;;;;19.73;100.00;99874.89;1769196;80;21030;-71
2022/10/02 03:09:04;;;;;;;27.40;21.17;;;;;;;19.67;100.00;99868.05;1767194;80;21009;-72
2022/10/02 03:12:10;;;;;;;29.45;21.37;;;;;;;19.65;100.00;99858.23;1770556;80;20967;-69
2022/10/02 03:15:25;;;;;;;28.83;21.33;;;;;;;19.61;100.00;99852.00;1765535;80;21042;-71
2022/10/02 03:18:04;;;;;;;28.10;21.00;;;;;;;19.60;100.00;99850.83;1770543;79;21530;-72
2022/10/02 03:20:53;;;;;;;30.97;21.17;;;;;;;19.58;100.00;99856.68;1765524;80;21057;-72
2022/10/02 03:23:47;;;;;;;26.75;20.72;;;;;;;19.53;100.00;99846.67;1770970;80;20990;-72
2022/10/02 03:26:29;;;;;;;26.75;19.50;;;;;;;19.52;100.00;99841.09;1756310;80;21014;-72
2022/10/02 03:29:00;;;;;;;27.15;19.17;;;;;;;19.54;100.00;99844.88;1753150;80;21022;-72
2022/10/02 03:31:31;;;;;;;31.00;19.57;;;;;;;19.51;100.00;99847.78;1752275;82;21546;-72
2022/10/02 03:33:59;;;;;;;29.35;20.05;;;;;;;19.47;100.00;99838.59;1751413;81;21498;-71
2022/10/02 03:36:27;;;;;;;25.97;19.48;;;;;;;19.41;100.00;99832.95;1737743;80;21073;-73
2022/10/02 03:38:59;;;;;;;25.12;18.20;;;;;;;19.38;100.00;99826.73;1755556;81;21144;-72
2022/10/02 03:41:26;;;;;;;30.32;18.52;;;;;;;19.37;100.00;99834.69;1754617;81;21078;-73
2022/10/02 03:43:52;;;;;;;30.52;18.98;;;;;;;19.32;100.00;99839.04;1737325;80;21061;-73
2022/10/02 03:46:19;;;;;;;25.35;17.80;;;;;;;19.32;100.00;99832.97;1752988;80;21033;-72
2022/10/02 03:48:46;;;;;;;25.08;16.15;;;;;;;19.32;100.00;99831.21;1753521;81;21026;-73
2022/10/02 03:51:13;;;;;;;24.63;16.97;;;;;;;19.27;100.00;99824.76;1752895;81;21038;-73
2022/10/02 03:53:41;;;;;;;23.30;17.30;;;;;;;19.27;100.00;99832.09;1756862;81;21571;-73
2022/10/02 03:56:16;;;;;;;31.17;17.40;;;;;;;19.25;100.00;99831.91;1752838;81;21058;-73
2022/10/02 03:58:47;;;;;;;26.97;15.90;;;;;;;19.22;100.00;99830.38;1751849;81;21067;-73
2022/10/02 04:01:27;;;;;;;23.22;15.70;;;;;;;19.23;100.00;99828.61;1752760;81;21014;-74
2022/10/02 04:04:18;;;;;;;22.35;15.85;;;;;;;19.31;100.00;99822.20;1730740;82;21030;-73
2022/10/02 04:06:57;;;;;;;19.73;15.20;;;;;;;19.29;100.00;99828.86;1750529;81;21557;-73
2022/10/02 04:09:51;;;;;;;22.27;15.58;;;;;;;19.35;100.00;99837.92;1753278;81;20998;-74
2022/10/02 04:12:39;;;;;;;22.77;15.23;;;;;;;19.39;100.00;99833.58;1728488;82;21471;-73
2022/10/02 04:15:32;;;;;;;23.70;15.50;;;;;;;19.47;100.00;99843.32;1754002;82;21038;-74
2022/10/02 04:18:17;;;;;;;23.10;14.75;;;;;;;19.54;100.00;99851.40;1746957;82;21023;-74
2022/10/02 04:20:54;;;;;;;23.62;16.52;;;;;;;19.64;100.00;99863.13;1752916;81;21064;-74
2022/10/02 04:23:32;;;;;;;25.62;15.72;;;;;;;19.73;100.00;99873.58;1753773;82;21455;-72
2022/10/02 04:26:07;;;;;;;28.15;16.97;;;;;;;19.80;100.00;99889.50;1753856;81;21049;-74
2022/10/02 04:28:39;;;;;;;26.30;16.27;;;;;;;19.87;100.00;99902.80;1753818;81;21022;-74
2022/10/02 04:31:13;;;;;;;30.35;18.37;;;;;;;19.97;100.00;99906.20;1752098;81;21074;-74
2022/10/02 04:33:40;;;;;;;27.02;16.80;;;;;;;20.01;100.00;99914.94;1754302;81;21069;-73
2022/10/02 04:36:23;;;;;;;30.32;16.73;;;;;;;20.13;100.00;99912.97;1754861;81;21011;-73
2022/10/02 04:39:34;;;;;;;28.55;17.48;;;;;;;20.21;100.00;99915.69;1751027;80;21078;-73
2022/10/02 04:42:25;;;;;;;32.33;17.90;;;;;;;20.28;100.00;99921.64;1751799;82;21601;-73
2022/10/02 04:45:13;;;;;;;26.12;16.27;;;;;;;20.28;100.00;99925.56;1745624;82;21070;-73
2022/10/02 04:48:08;;;;;;;29.37;16.97;;;;;;;20.28;100.00;99930.30;1752757;81;21050;-73
2022/10/02 04:51:04;;;;;;;29.05;16.87;;;;;;;20.33;100.00;99925.45;1743761;80;21069;-74
2022/10/02 04:53:46;;;;;;;25.92;16.20;;;;;;;20.30;100.00;99928.86;1778508;80;20999;-73
2022/10/02 04:56:51;;;;;;;26.37;15.15;;;;;;;20.29;100.00;99931.12;1739098;80;21854;-73
2022/10/02 04:59:32;;;;;;;29.52;15.98;;;;;;;20.38;100.00;99942.02;1766821;80;21070;-72
2022/10/02 05:02:26;;;;;;;25.80;14.35;;;;;;;20.37;100.00;99935.95;1777363;80;21012;-73
2022/10/02 05:05:27;;;;;;;24.52;14.03;;;;;;;20.35;100.00;99934.45;1768458;80;21551;-73
2022/10/02 05:08:21;;;;;;;27.55;13.60;;;;;;;20.30;100.00;99937.52;1772000;80;21062;-73
2022/10/02 05:11:34;;;;;;;18.87;11.57;;;;;;;20.30;100.00;99941.92;1783454;80;21043;-73
2022/10/02 05:14:10;;;;;;;18.85;11.75;;;;;;;20.32;100.00;99932.96;1782213;80;21038;-72
2022/10/02 05:16:52;;;;;;;18.80;11.65;;;;;;;20.30;100.00;99951.89;1778401;80;21086;-73
2022/10/02 05:19:40;;;;;;;19.77;11.53;;;;;;;20.36;100.00;99947.39;1763578;80;21539;-72
2022/10/02 05:22:32;;;;;;;19.77;11.50;;;;;;;20.46;100.00;99938.20;1779529;80;21088;-72
2022/10/02 05:25:45;;;;;;;15.35;10.20;;;;;;;20.57;100.00;99934.55;1750829;80;21011;-72
2022/10/02 05:28:35;;;;;;;17.07;10.68;;;;;;;20.71;100.00;99923.63;1772181;80;21071;-73
2022/10/02 05:31:51;;;;;;;11.97;8.28;;;;;;;20.92;100.00;99917.28;1781225;80;21520;-73
2022/10/02 05:34:49;;;;;;;16.07;8.43;;;;;;;21.14;100.00;99918.14;1776099;80;21006;-73
2022/10/02 05:37:56;;;;;;;14.75;8.85;;;;;;;21.30;100.00;99915.34;1772253;80;21014;-74
2022/10/02 05:40:30;;;;;;;18.67;9.23;;;;;;;21.47;100.00;99925.47;1773488;80;21028;-72
2022/10/02 05:43:23;;;;;;;12.55;8.75;;;;;;;21.48;100.00;99920.09;1757177;80;21097;-72
2022/10/02 05:45:55;;;;;;;14.07;8.15;;;;;;;21.48;100.00;99915.34;1753692;81;21034;-73
2022/10/02 05:48:40;;;;;;;13.72;8.00;;;;;;;21.50;100.00;99902.92;1723765;82;21026;-74
2022/10/02 05:51:13;;;;;;;15.88;8.23;;;;;;;21.47;100.00;99909.76;1756348;82;21133;-74
2022/10/02 05:53:49;;;;;;;13.75;8.13;;;;;;;21.38;100.00;99907.05;1751078;81;21014;-74
2022/10/02 05:56:21;;;;;;;13.93;8.60;;;;;;;21.28;100.00;99901.08;1751879;82;21042;-74
2022/10/02 05:59:05;;;;;;;17.67;8.55;;;;;;;21.29;100.00;99893.58;1752211;81;21014;-74
2022/10/02 06:01:37;;;;;;;;;;;;;;;21.27;100.00;99886.36;1753996;80;21654;-74
2022/10/02 06:04:15;;;;;;;13.53;8.03;;;;;;;21.21;100.00;99889.59;1763627;80;20653;-74
2022/10/02 06:06:55;;;;;;;14.05;7.65;;;;;;;21.18;100.00;99883.33;1786079;80;21014;-74
2022/10/02 06:09:32;;;;;;;12.55;8.58;;;;;;;21.27;100.00;99878.52;1765200;80;21023;-75
2022/10/02 06:12:14;;;;;;;14.95;8.35;;;;;;;21.32;100.00;99880.17;1761002;80;21039;-74
2022/10/02 06:14:49;;;;;;;14.83;7.95;;;;;;;21.36;100.00;99881.50;1785905;80;21018;-73
2022/10/02 06:17:23;;;;;;;12.68;8.10;;;;;;;21.32;100.00;99881.48;1742297;80;21002;-74
2022/10/02 06:20:25;;;;;;;12.63;7.50;;;;;;;21.44;100.00;99874.73;1770533;80;20982;-73
2022/10/02 06:23:01;;;;;;;11.93;7.17;;;;;;;21.65;100.00;99861.27;1770777;80;21065;-73
2022/10/02 06:25:36;;;;;;;12.85;7.55;;;;;;;21.89;100.00;99855.33;1770464;80;21014;-73
2022/10/02 06:28:36;;;;;;;11.60;7.62;;;;;;;22.00;100.00;99855.06;1768536;80;21026;-73
2022/10/02 06:31:41;;;;;;;13.25;8.40;;;;;;;22.05;100.00;99853.27;1769530;80;20971;-73
2022/10/02 06:34:13;;;;;;;15.85;8.15;;;;;;;22.11;100.00;99845.59;1770108;80;21026;-73
2022/10/02 06:36:57;;;;;;;15.78;8.23;;;;;;;22.18;100.00;99845.30;1766751;80;21506;-74
2022/10/02 06:40:03;;;;;;;15.45;8.33;;;;;;;22.29;100.00;99836.84;1769634;80;21180;-73
2022/10/02 06:45:57;;;;;;;15.30;8.58;;;;;;;21.83;100.00;99829.76;1773917;79;24813;-74
2022/10/02 06:48:41;;;;;;;14.35;8.88;;;;;;;22.00;100.00;99827.05;1702877;80;20998;-73
2022/10/02 06:51:38;;;;;;;17.48;9.65;;;;;;;21.94;100.00;99819.82;1735767;81;21032;-73
2022/10/02 06:54:36;;;;;;;14.38;8.75;;;;;;;21.99;100.00;99816.22;1727107;81;21114;-74
2022/10/02 06:57:33;;;;;;;14.03;9.38;;;;;;;22.01;100.00;99802.97;1725346;80;21537;-73
2022/10/02 07:00:18;;;;;;;13.15;8.10;;;;;;;22.02;100.00;99808.55;1707559;82;21004;-73
2022/10/02 07:03:05;;;;;;;12.90;7.80;;;;;;;21.98;100.00;99808.54;1702283;83;21065;-73
2022/10/02 07:06:02;;;;;;;11.80;8.18;;;;;;;21.91;100.00;99808.83;1696606;81;21028;-73
2022/10/02 07:08:46;;;;;;;14.13;8.83;;;;;;;21.77;100.00;99811.55;1664919;83;22442;-71
2022/10/02 07:11:31;;;;;;;10.48;7.25;;;;;;;21.77;100.00;99807.62;1708697;82;21050;-74
2022/10/02 07:14:20;;;;;;;15.65;8.60;;;;;;;21.80;100.00;99810.75;1678546;84;21488;-74
2022/10/02 07:17:07;;;;;;;14.13;8.00;;;;;;;21.92;100.00;99813.11;1683095;83;21051;-73
2022/10/02 07:20:15;;;;;;;15.23;9.10;;;;;;;21.93;100.00;99810.80;1749542;81;21026;-74
2022/10/02 07:23:08;;;;;;;15.58;9.75;;;;;;;21.80;100.00;99812.56;1753271;80;21598;-73
2022/10/02 07:26:09;;;;;;;15.90;10.23;;;;;;;21.73;100.00;99812.84;1741758;80;21035;-73
2022/10/02 07:28:58;;;;;;;12.93;9.30;;;;;;;21.73;100.00;99804.48;1743251;81;21059;-73
2022/10/02 07:32:09;;;;;;;17.82;9.10;;;;;;;21.70;100.00;99799.58;1728062;82;21048;-72
2022/10/02 07:34:59;;;;;;;13.08;9.13;;;;;;;21.59;100.00;99795.45;1751346;81;21076;-73
2022/10/02 07:37:38;;;;;;;17.30;9.95;;;;;;;21.48;100.00;99786.53;1744420;81;21671;-73
2022/10/02 07:40:34;;;;;;;19.75;10.10;;;;;;;21.44;100.00;99772.12;1740491;81;21033;-72
2022/10/02 07:43:36;;;;;;;14.38;9.73;;;;;;;21.42;100.00;99767.49;1742211;80;21084;-74
2022/10/02 07:46:35;;;;;;;17.25;8.98;;;;;;;21.48;100.00;99765.59;1761647;80;21035;-73
2022/10/02 07:49:16;;;;;;;11.38;7.67;;;;;;;21.47;100.00;99765.73;1757369;80;21031;-74
2022/10/02 07:52:06;;;;;;;13.05;8.60;;;;;;;21.50;100.00;99744.00;1752871;80;20988;-73
2022/10/02 07:55:07;;;;;;;12.68;8.53;;;;;;;21.51;100.00;99737.80;1768505;80;21019;-73
2022/10/02 07:57:51;;;;;;;16.23;8.98;;;;;;;21.55;100.00;99732.58;1765187;80;21082;-72
2022/10/02 08:00:22;;;;;;;11.70;8.70;;;;;;;21.57;100.00;99719.30;1754145;80;21035;-72
2022/10/02 08:02:55;;;;;;;12.93;9.13;;;;;;;21.56;100.00;99705.89;1766081;80;21022;-73
2022/10/02 08:05:48;;;;;;;14.20;9.15;;;;;;;21.44;100.00;99702.73;1766708;80;21058;-74
2022/10/02 08:08:53;;;;;;;15.97;9.87;;;;;;;21.33;100.00;99681.55;1757534;80;21030;-74
2022/10/02 08:11:50;;;;;;;16.67;9.10;;;;;;;21.21;100.00;99648.29;1758182;80;21065;-73
2022/10/02 08:14:34;;;;;;;13.40;9.80;;;;;;;21.13;100.00;99639.59;1689532;82;21032;-73
2022/10/02 08:17:06;;;;;;;14.03;9.63;;;;;;;21.07;100.00;99638.42;1716914;81;21092;-71
2022/10/02 08:19:44;;;;;;;13.98;9.28;;;;;;;21.03;100.00;99650.17;1743781;80;21089;-73
2022/10/02 08:22:27;;;;;;;15.35;10.00;;;;;;;20.99;100.00;99633.15;1770486;80;21093;-72
2022/10/02 08:25:03;;;;;;;10.50;8.80;;;;;;;20.93;100.00;99629.36;1768250;80;21028;-73
2022/10/02 08:28:11;;;;;;;14.10;9.08;;;;;;;20.87;100.00;99626.55;1759545;80;21019;-72
2022/10/02 08:30:38;;;;;;;12.55;9.30;;;;;;;20.81;100.00;99619.64;1754763;80;21027;-72
2022/10/02 08:33:16;;;;;;;13.05;9.08;;;;;;;20.70;100.00;99608.16;1730710;80;21050;-72
2022/10/02 08:36:09;;;;;;;13.62;8.78;;;;;;;20.62;100.00;99615.95;1752770;80;21078;-72
2022/10/02 08:39:06;;;;;;;15.03;8.80;;;;;;;20.54;100.00;99597.08;1762500;80;21078;-72
2022/10/02 08:42:19;;;;;;;15.75;9.08;;;;;;;20.53;100.00;99599.84;1758158;80;21039;-72
2022/10/02 08:45:20;;;;;;;16.05;10.48;;;;;;;20.50;100.00;99590.52;1764124;80;21117;-73
2022/10/02 08:48:31;;;;;;;16.07;9.18;;;;;;;20.36;100.00;99587.16;1766516;80;21075;-71
2022/10/02 08:51:40;;;;;;;17.98;11.05;;;;;;;20.23;100.00;99577.59;1759224;80;21031;-71
2022/10/02 08:54:34;;;;;;;13.93;10.28;;;;;;;20.13;100.00;99569.38;1761819;80;21063;-71
2022/10/02 08:57:38;;;;;;;17.02;10.93;;;;;;;20.10;100.00;99540.11;1764607;80;21063;-71
2022/10/02 09:00:30;;;;;;;13.60;11.20;;;;;;;20.06;100.00;99526.52;1758005;80;21066;-71
2022/10/02 09:03:34;;;;;;;17.23;11.78;;;;;;;20.01;100.00;99530.06;1762055;80;21076;-71
2022/10/02 09:06:29;;;;;;;15.35;11.73;;;;;;;19.98;100.00;99521.24;1741852;80;21019;-70
2022/10/02 09:09:08;;;;;;;16.40;12.45;;;;;;;19.98;100.00;99500.34;1753467;80;21110;-71
2022/10/02 09:12:10;;;;;;;15.68;11.10;;;;;;;20.03;100.00;99492.85;1756444;80;21077;-70
2022/10/02 09:14:43;;;;;;;13.62;10.72;;;;;;;20.08;100.00;99485.39;1756726;80;21083;-70
2022/10/02 09:17:29;;;;;;;12.33;10.32;;;;;;;20.10;100.00;99492.59;1746418;80;21062;-71
2022/10/02 09:20:23;;;;;;;14.68;11.33;;;;;;;20.10;100.00;99483.94;1731723;81;21062;-71
2022/10/02 09:23:15;;;;;;;14.85;11.05;;;;;;;20.15;100.00;99464.68;1732178;80;21586;-72
2022/10/02 09:26:00;;;;;;;14.40;10.72;;;;;;;20.18;100.00;99468.30;1741519;80;21026;-71
2022/10/02 09:28:58;;;;;;;14.38;11.38;;;;;;;20.15;100.00;99467.30;1759844;80;21070;-70
2022/10/02 09:32:06;;;;;;;16.40;11.25;;;;;;;20.23;100.00;99468.64;1764265;80;21057;-70
2022/10/02 09:35:07;;;;;;;14.07;11.20;;;;;;;20.25;100.00;99466.69;1763733;80;21048;-71
2022/10/02 09:38:04;;;;;;;16.05;11.08;;;;;;;20.21;100.00;99458.84;1765655;80;21043;-71
2022/10/02 09:40:40;;;;;;;12.55;10.72;;;;;;;20.20;100.00;99454.10;1747057;80;21079;-72
2022/10/02 09:43:53;;;;;;;14.68;11.25;;;;;;;20.15;100.00;99452.92;1687448;82;21138;-72
2022/10/02 09:46:51;;;;;;;15.72;10.40;;;;;;;20.13;100.00;99443.12;1703572;83;21052;-71
2022/10/02 09:50:07;;;;;;;15.70;11.18;;;;;;;20.11;100.00;99434.61;1671163;84;21119;-72
2022/10/02 09:53:00;;;;;;;14.03;10.90;;;;;;;20.12;100.00;99423.20;1744091;80;21026;-72
2022/10/02 09:56:08;;;;;;;12.98;10.82;;;;;;;20.19;100.00;99409.37;1707666;82;21062;-72
2022/10/02 09:58:54;;;;;;;12.75;10.10;;;;;;;20.21;100.00;99410.03;1751020;80;21043;-73
2022/10/02 10:01:42;;;;;;;12.58;9.65;;;;;;;20.23;100.00;99399.89;1755903;80;21054;-73
2022/10/02 10:04:29;;;;;;;11.08;9.73;;;;;;;20.26;100.00;99391.75;1742121;80;21046;-72
2022/10/02 10:07:21;;;;;;;12.82;10.35;;;;;;;20.29;100.00;99385.70;1756706;80;21067;-73
2022/10/02 10:10:30;;;;;;;13.20;10.45;;;;;;;20.36;100.00;99367.12;1748043;80;21051;-73
2022/10/02 10:13:54;;;;;;;13.48;9.10;;;;;;;20.45;100.00;99353.57;1735328;81;21071;-71
2022/10/02 10:16:53;;;;;;;11.05;9.28;;;;;;;20.43;100.00;99349.48;1752030;80;20999;-72
2022/10/02 10:19:50;;;;;;;10.68;8.65;;;;;;;20.56;100.00;99361.13;1746632;80;21129;-73
2022/10/02 10:22:40;;;;;;;11.65;9.33;;;;;;;20.57;100.00;99354.09;1766923;80;21055;-74
2022/10/02 10:25:38;;;;;;;9.40;8.08;;;;;;;20.63;100.00;99353.98;1765143;80;21066;-72
2022/10/02 10:28:39;;;;;;;11.57;8.03;;;;;;;20.76;100.00;99351.23;1767835;80;21054;-73
2022/10/02 10:31:33;;;;;;;10.63;8.28;;;;;;;20.84;100.00;99358.73;1760127;80;21069;-73
2022/10/02 10:34:41;;;;;;;13.57;8.97;;;;;;;20.98;100.00;99353.67;1756923;80;21038;-73
2022/10/02 10:40:37;;;;;;;11.80;8.88;;;;;;;21.13;100.00;99353.05;1755449;80;21125;-73
2022/10/02 10:43:14;;;;;;;;;;;;;;;21.01;100.00;99344.20;1772438;80;21308;-73
2022/10/02 10:46:07;;;;;;;11.90;9.08;;;;;;;21.09;100.00;99338.66;1763057;80;20108;-73
2022/10/02 10:48:59;;;;;;;11.93;9.33;;;;;;;20.98;100.00;99331.93;1726794;80;21015;-73
2022/10/02 10:52:12;;;;;;;10.63;8.03;;;;;;;20.92;100.00;99322.93;1750562;80;20995;-73
2022/10/02 10:55:01;;;;;;;17.57;11.57;;;;;;;20.82;100.00;99322.27;1752914;81;21014;-71
2022/10/02 10:57:52;;;;;;;12.98;9.55;;;;;;;20.55;100.00;99321.56;1742035;80;21050;-73
2022/10/02 11:00:24;;;;;;;11.53;9.98;;;;;;;20.44;100.00;99315.36;1742862;81;21474;-72
2022/10/02 11:03:05;;;;;;;12.88;9.70;;;;;;;20.35;100.00;99311.88;1760652;80;21038;-72
2022/10/02 11:06:17;;;;;;;15.25;11.95;;;;;;;20.21;100.00;99300.28;1720514;81;21046;-73
2022/10/02 11:09:25;;;;;;;10.82;8.43;;;;;;;20.17;100.00;99283.28;1732347;79;21041;-72
2022/10/02 11:12:00;;;;;;;11.95;8.73;;;;;;;20.24;100.00;99281.34;1676172;84;21116;-72
2022/10/02 11:14:54;;;;;;;10.78;8.63;;;;;;;20.33;100.00;99271.22;1685009;83;21039;-73
2022/10/02 11:17:42;;;;;;;12.95;9.80;;;;;;;20.41;100.00;99264.69;1688727;83;21641;-72
2022/10/02 11:20:32;;;;;;;11.97;10.40;;;;;;;20.65;100.00;99258.70;1684253;83;21815;-73
2022/10/02 11:23:22;;;;;;;20.32;15.05;;;;;;;20.76;100.00;99255.77;1615415;85;21051;-72
2022/10/02 11:26:20;;;;;;;19.00;14.25;;;;;;;20.83;100.00;99253.80;1676458;84;21023;-72
2022/10/02 11:29:13;;;;;;;19.62;14.60;;;;;;;20.92;100.00;99253.61;1674125;83;21061;-73
2022/10/02 11:32:04;;;;;;;20.92;15.13;;;;;;;21.05;100.00;99245.27;1669412;83;21577;-73
2022/10/02 11:34:42;;;;;;;18.32;14.13;;;;;;;21.13;100.00;99248.38;1655526;85;21103;-73
2022/10/02 11:37:56;;;;;;;16.25;12.55;;;;;;;21.24;100.00;99260.28;1663002;85;21063;-72
2022/10/02 11:40:33;;;;;;;15.08;12.47;;;;;;;21.47;100.00;99258.62;1681219;83;21055;-73
2022/10/02 11:43:29;;;;;;;16.20;12.00;;;;;;;21.56;100.00;99271.19;1685216;83;21046;-72
2022/10/02 11:46:13;;;;;;;15.03;10.65;;;;;;;21.53;100.00;99272.82;1695582;83;21114;-73
2022/10/02 11:49:06;;;;;;;13.53;10.45;;;;;;;21.56;100.00;99269.37;1687542;83;21043;-73
2022/10/02 11:52:00;;;;;;;14.18;10.15;;;;;;;21.52;100.00;99265.47;1689450;83;21105;-72
2022/10/02 11:54:48;;;;;;;13.18;9.88;;;;;;;21.46;100.00;99261.41;1681826;83;21082;-73
2022/10/02 11:57:53;;;;;;;11.70;9.43;;;;;;;21.36;100.00;99255.82;1618523;85;21100;-72
2022/10/02 12:01:04;;;;;;;10.72;9.08;;;;;;;21.21;100.00;99250.97;1690277;84;21570;-72
2022/10/02 12:03:49;;;;;;;11.88;9.10;;;;;;;21.01;100.00;99245.28;1690474;84;21007;-73
2022/10/02 12:07:06;;;;;;;11.80;8.83;;;;;;;20.87;100.00;99241.53;1689121;84;21047;-72
2022/10/02 12:10:12;;;;;;;13.35;9.43;;;;;;;20.69;100.00;99227.31;1685384;85;21011;-73
2022/10/02 12:12:47;;;;;;;10.63;9.45;;;;;;;20.69;100.00;99221.28;1680983;85;21484;-72
2022/10/02 12:15:42;;;;;;;16.23;10.15;;;;;;;20.76;100.00;99220.93;1690981;85;21732;-73
2022/10/02 12:18:27;;;;;;;13.78;10.30;;;;;;;20.68;100.00;99209.17;1690655;84;21095;-72
2022/10/02 12:28:09;;;;;;;13.60;10.15;;;;;;;20.51;100.00;99186.93;1691184;84;21063;-73
2022/10/02 12:30:46;;;;;;;13.78;10.40;;;;;;;20.45;100.00;99197.23;1722192;83;21024;-73
2022/10/02 12:33:31;;;;;;;15.55;10.08;;;;;;;20.35;100.00;99181.20;1722037;83;21070;-72
2022/10/02 12:36:21;;;;;;;14.20;9.48;;;;;;;20.26;100.00;99167.02;1721997;83;21079;-73
2022/10/02 12:39:27;;;;;;;12.95;9.03;;;;;;;20.08;100.00;99152.80;1720020;83;21542;-73
2022/10/02 12:42:25;;;;;;;14.55;9.75;;;;;;;20.02;100.00;99139.89;1722292;83;21530;-72
2022/10/02 12:45:06;;;;;;;12.65;9.48;;;;;;;19.94;100.00;99133.35;1721653;82;21071;-73
2022/10/02 12:47:57;;;;;;;12.33;8.73;;;;;;;19.87;100.00;99130.58;1726771;83;21019;-73
2022/10/02 12:51:04;;;;;;;11.70;8.15;;;;;;;19.77;100.00;99127.30;1721322;83;21191;-72
2022/10/02 12:53:55;;;;;;;8.90;7.47;;;;;;;19.68;100.00;99115.97;1724084;83;21082;-73
2022/10/02 12:57:50;;;;;;;9.68;6.85;;;;;;;19.66;100.00;99115.81;1722056;83;21040;-72